createdAt,value
2022-10-14T00:02:25.728Z,6.60
2022-10-14T00:04:52.072Z,4.20
2022-10-14T00:07:18.573Z,8.60
2022-10-14T00:09:46.389Z,6.88
2022-10-14T00:12:12.760Z,8.18
2022-10-14T00:14:39.409Z,7.82
2022-10-14T00:17:05.800Z,11.55
2022-10-14T00:19:32.119Z,7.40
2022-10-14T00:21:58.514Z,6.45
2022-10-14T00:24:24.807Z,6.57
2022-10-14T00:26:51.108Z,5.18
2022-10-14T00:29:20.404Z,7.28
2022-10-14T00:31:47.307Z,3.92
2022-10-14T00:34:15.843Z,7.45
2022-10-14T00:36:42.691Z,4.38
2022-10-14T00:39:09.321Z,5.82
2022-10-14T00:41:35.908Z,5.65
2022-10-14T00:44:07.371Z,6.40
2022-10-14T00:46:41.063Z,9.52
2022-10-14T00:49:12.832Z,5.28
2022-10-14T00:51:39.992Z,11.20
2022-10-14T00:54:06.484Z,10.57
2022-10-14T00:56:33.318Z,9.60
2022-10-14T00:59:00.110Z,5.68
2022-10-14T01:01:26.448Z,5.50
2022-10-14T01:03:52.759Z,3.00
2022-10-14T01:06:37.456Z,7.57
2022-10-14T01:09:06.076Z,9.45
2022-10-14T01:11:32.366Z,8.10
2022-10-14T01:14:22.086Z,8.00
2022-10-14T01:17:06.274Z,6.68
2022-10-14T01:19:51.538Z,8.00
2022-10-14T01:22:30.032Z,9.90
2022-10-14T01:25:02.962Z,10.27
2022-10-14T01:27:35.392Z,9.05
2022-10-14T01:30:20.975Z,5.97
2022-10-14T01:32:47.265Z,12.15
2022-10-14T01:35:23.803Z,12.38
2022-10-14T01:38:01.072Z,14.07
2022-10-14T01:40:35.374Z,13.20
2022-10-14T01:43:02.450Z,12.88
2022-10-14T01:45:30.596Z,10.13
2022-10-14T01:47:57.525Z,20.77
2022-10-14T01:50:25.013Z,11.10
2022-10-14T01:53:13.046Z,17.73
2022-10-14T01:55:42.064Z,18.67
2022-10-14T01:58:09.866Z,17.60
2022-10-14T02:00:36.442Z,17.20
2022-10-14T02:03:02.752Z,19.45
2022-10-14T02:05:29.066Z,15.45
2022-10-14T02:08:10.714Z,12.10
2022-10-14T02:10:37.001Z,16.55
2022-10-14T02:13:11.579Z,14.07
2022-10-14T02:15:41.931Z,13.80
2022-10-14T02:18:11.101Z,22.95
2022-10-14T02:20:41.400Z,12.27
2022-10-14T02:23:07.689Z,9.77
2022-10-14T02:25:35.899Z,21.35
2022-10-14T02:28:02.987Z,12.35
2022-10-14T02:30:30.977Z,17.25
2022-10-14T02:32:58.498Z,21.52
2022-10-14T02:35:25.157Z,12.73
2022-10-14T02:37:52.240Z,13.57
2022-10-14T02:40:23.094Z,10.65
2022-10-14T02:42:49.388Z,21.63
2022-10-14T02:45:16.050Z,18.58
2022-10-14T02:47:42.759Z,12.90
2022-10-14T02:50:09.388Z,16.33
2022-10-14T02:52:35.664Z,9.95
2022-10-14T02:55:01.990Z,23.73
2022-10-14T02:57:28.292Z,19.88
2022-10-14T02:59:54.607Z,27.42
2022-10-14T03:02:21.140Z,15.48
2022-10-14T03:04:47.582Z,20.90
2022-10-14T03:07:13.929Z,15.88
2022-10-14T03:09:40.314Z,25.20
2022-10-14T03:12:06.920Z,35.20
2022-10-14T03:14:33.222Z,24.25
2022-10-14T03:16:59.571Z,21.08
2022-10-14T03:19:25.867Z,24.55
2022-10-14T03:21:52.226Z,20.65
2022-10-14T03:24:18.536Z,22.70
2022-10-14T03:26:44.839Z,19.95
2022-10-14T03:29:11.170Z,22.10
2022-10-14T03:31:37.529Z,25.85
2022-10-14T03:34:03.921Z,12.30
2022-10-14T03:36:30.217Z,22.67
2022-10-14T03:38:56.645Z,25.40
2022-10-14T03:41:23.061Z,29.73
2022-10-14T03:43:49.359Z,24.00
2022-10-14T03:46:16.065Z,21.23
2022-10-14T03:48:42.550Z,26.45
2022-10-14T03:51:08.963Z,32.20
2022-10-14T03:53:35.260Z,32.85
2022-10-14T03:56:01.773Z,32.20
2022-10-14T03:58:28.068Z,30.48
2022-10-14T04:00:54.353Z,34.38
2022-10-14T04:03:20.673Z,30.20
2022-10-14T04:05:47.093Z,33.70
2022-10-14T04:08:13.410Z,30.60
2022-10-14T04:10:39.783Z,40.45
2022-10-14T04:13:06.152Z,40.70
2022-10-14T04:15:32.484Z,38.78
2022-10-14T04:17:58.771Z,30.75
2022-10-14T04:20:25.102Z,31.35
2022-10-14T04:22:51.383Z,31.48
2022-10-14T04:25:17.934Z,43.60
2022-10-14T04:27:44.242Z,29.67
2022-10-14T04:30:10.931Z,32.70
2022-10-14T04:32:37.330Z,36.97
2022-10-14T04:35:03.812Z,32.15
2022-10-14T04:37:30.129Z,35.80
2022-10-14T04:39:56.425Z,31.85
2022-10-14T04:42:23.451Z,38.13
2022-10-14T04:44:50.634Z,33.50
2022-10-14T04:47:16.934Z,24.52
2022-10-14T04:49:43.223Z,29.75
2022-10-14T04:52:09.519Z,28.45
2022-10-14T04:54:35.798Z,30.90
2022-10-14T04:57:02.660Z,24.48
2022-10-14T04:59:29.024Z,20.15
2022-10-14T05:01:55.373Z,19.98
2022-10-14T05:04:21.861Z,18.52
2022-10-14T05:06:48.266Z,21.52
2022-10-14T05:09:14.596Z,18.05
2022-10-14T05:11:40.948Z,17.48
2022-10-14T05:14:07.269Z,19.52
2022-10-14T05:16:33.596Z,14.40
2022-10-14T05:18:59.867Z,11.75
2022-10-14T05:21:26.228Z,13.02
2022-10-14T05:23:52.669Z,9.63
2022-10-14T05:26:19.136Z,14.05
2022-10-14T05:28:45.566Z,14.02
2022-10-14T05:31:12.060Z,8.13
2022-10-14T05:33:38.385Z,9.13
2022-10-14T05:36:04.767Z,15.50
2022-10-14T05:38:31.536Z,12.27
2022-10-14T05:40:58.075Z,11.75
2022-10-14T05:43:29.250Z,12.18
2022-10-14T05:45:58.443Z,10.90
2022-10-14T05:48:25.859Z,14.00
2022-10-14T05:50:52.523Z,12.70
2022-10-14T05:53:18.886Z,11.10
2022-10-14T05:55:45.223Z,11.75
2022-10-14T05:58:11.522Z,10.23
2022-10-14T06:00:37.896Z,9.57
2022-10-14T06:03:04.320Z,11.10
2022-10-14T06:05:30.719Z,9.93
2022-10-14T06:07:57.084Z,10.27
2022-10-14T06:10:23.400Z,9.45
2022-10-14T06:12:49.684Z,10.75
2022-10-14T06:15:15.964Z,8.02
2022-10-14T06:17:42.320Z,10.23
2022-10-14T06:20:08.811Z,7.93
2022-10-14T06:22:35.145Z,9.93
2022-10-14T06:25:04.296Z,11.63
2022-10-14T06:27:31.090Z,10.20
2022-10-14T06:29:57.469Z,3.72
2022-10-14T06:32:24.191Z,8.70
2022-10-14T06:34:50.894Z,11.45
2022-10-14T06:37:17.188Z,8.70
2022-10-14T06:39:45.076Z,8.07
2022-10-14T06:42:13.154Z,7.97
2022-10-14T06:44:39.646Z,13.07
2022-10-14T06:47:06.738Z,11.23
2022-10-14T06:49:33.028Z,17.35
2022-10-14T06:51:59.361Z,13.50
2022-10-14T06:54:25.659Z,8.05
2022-10-14T06:56:51.994Z,19.90
2022-10-14T06:59:18.314Z,10.90
2022-10-14T07:01:44.760Z,23.10
2022-10-14T07:04:11.213Z,22.75
2022-10-14T07:06:38.135Z,20.25
2022-10-14T07:09:04.809Z,28.13
2022-10-14T07:11:31.172Z,25.42
2022-10-14T07:13:57.569Z,20.73
2022-10-14T07:16:23.909Z,21.25
2022-10-14T07:18:50.280Z,29.83
2022-10-14T07:21:16.570Z,19.27
2022-10-14T07:23:42.853Z,25.48
2022-10-14T07:26:09.256Z,23.02
2022-10-14T07:28:35.645Z,21.52
2022-10-14T07:31:06.341Z,20.30
2022-10-14T07:33:32.960Z,19.38
2022-10-14T07:36:03.978Z,17.17
2022-10-14T07:38:30.468Z,18.70
2022-10-14T07:41:00.756Z,24.10
2022-10-14T07:43:27.444Z,20.15
2022-10-14T07:46:00.335Z,21.35
2022-10-14T07:48:32.669Z,19.77
2022-10-14T07:51:05.909Z,22.25
2022-10-14T07:53:32.500Z,13.32
2022-10-14T07:55:59.045Z,19.40
2022-10-14T07:58:29.129Z,23.05
2022-10-14T08:00:56.170Z,18.08
2022-10-14T08:03:23.556Z,17.27
2022-10-14T08:05:50.326Z,22.23
2022-10-14T08:08:18.071Z,19.00
2022-10-14T08:10:44.882Z,17.20
2022-10-14T08:13:11.275Z,20.05
2022-10-14T08:15:40.544Z,17.23
2022-10-14T08:18:11.835Z,20.52
2022-10-14T08:20:38.118Z,17.70
2022-10-14T08:23:04.457Z,17.63
2022-10-14T08:25:30.830Z,16.58
2022-10-14T08:27:58.508Z,14.20
2022-10-14T08:30:25.368Z,16.42
2022-10-14T08:32:51.734Z,13.90
2022-10-14T08:35:18.195Z,14.30
2022-10-14T08:37:44.514Z,11.77
2022-10-14T08:40:15.311Z,13.70
2022-10-14T08:42:54.438Z,12.32
2022-10-14T08:45:23.523Z,11.63
2022-10-14T08:47:52.404Z,11.07
2022-10-14T08:50:21.815Z,10.13
2022-10-14T08:52:57.241Z,10.88
2022-10-14T08:55:37.280Z,12.18
2022-10-14T08:58:21.901Z,12.25
2022-10-14T09:00:50.770Z,8.85
2022-10-14T09:03:33.375Z,10.88
2022-10-14T09:06:02.192Z,9.27
2022-10-14T09:08:32.592Z,10.07
2022-10-14T09:10:59.141Z,10.15
2022-10-14T09:13:36.473Z,7.07
2022-10-14T09:16:17.536Z,8.85
2022-10-14T09:18:57.167Z,9.40
2022-10-14T09:21:47.997Z,8.30
2022-10-14T09:24:37.422Z,11.30
2022-10-14T09:27:10.933Z,9.57
2022-10-14T09:29:43.326Z,8.85
2022-10-14T09:32:12.775Z,9.40
2022-10-14T09:34:40.471Z,7.70
2022-10-14T09:37:22.885Z,9.48
2022-10-14T09:39:49.973Z,8.82
2022-10-14T09:42:21.406Z,9.88
2022-10-14T09:45:08.323Z,8.25
2022-10-14T09:47:41.960Z,11.45
2022-10-14T09:50:09.563Z,8.25
2022-10-14T09:52:38.062Z,8.38
2022-10-14T09:55:05.184Z,7.10
2022-10-14T09:57:31.967Z,7.57
2022-10-14T10:00:03.896Z,7.65
2022-10-14T10:02:44.611Z,6.43
2022-10-14T10:05:21.813Z,9.75
2022-10-14T10:08:01.445Z,8.73
2022-10-14T10:10:30.685Z,10.27
2022-10-14T10:12:57.744Z,6.88
2022-10-14T10:15:24.406Z,6.80
2022-10-14T10:17:51.241Z,6.68
2022-10-14T10:20:33.574Z,7.43
2022-10-14T10:23:20.005Z,7.18
2022-10-14T10:38:00.584Z,6.60
2022-10-14T10:40:26.876Z,7.40
2022-10-14T10:43:13.660Z,5.32
2022-10-14T10:45:40.058Z,8.13
2022-10-14T10:48:12.399Z,5.72
2022-10-14T10:50:52.611Z,5.75
2022-10-14T10:53:22.891Z,6.28
2022-10-14T10:55:54.041Z,7.93
2022-10-14T10:58:27.655Z,7.07
2022-10-14T11:01:01.829Z,6.88
2022-10-14T11:03:37.582Z,11.65
2022-10-14T11:06:10.081Z,6.72
2022-10-14T11:08:55.326Z,9.88
2022-10-14T11:11:57.063Z,8.85
2022-10-14T11:14:38.198Z,6.05
2022-10-14T11:17:10.850Z,5.38
2022-10-14T11:19:47.470Z,7.80
2022-10-14T11:22:20.262Z,7.57
2022-10-14T11:24:54.561Z,5.50
2022-10-14T11:27:28.409Z,7.13
2022-10-14T11:30:16.581Z,4.97
2022-10-14T11:33:03.125Z,5.72
2022-10-14T11:35:29.444Z,3.25
2022-10-14T11:38:03.742Z,3.10
2022-10-14T11:40:42.002Z,3.30
2022-10-14T11:43:26.963Z,3.70
2022-10-14T11:45:56.089Z,3.13
2022-10-14T11:48:31.467Z,3.38
2022-10-14T11:51:19.180Z,4.93
2022-10-14T11:53:52.775Z,4.05
2022-10-14T11:56:24.227Z,2.95
2022-10-14T11:58:51.926Z,3.75
2022-10-14T12:01:20.471Z,5.15
2022-10-14T12:04:09.802Z,2.50
2022-10-14T12:06:46.548Z,3.15
2022-10-14T12:09:15.713Z,4.53
2022-10-14T12:12:03.337Z,4.13
2022-10-14T12:14:29.632Z,4.65
2022-10-14T12:16:58.613Z,3.40
2022-10-14T12:19:26.308Z,2.60
2022-10-14T12:21:55.640Z,2.65
2022-10-14T12:24:24.819Z,2.13
2022-10-14T12:26:52.637Z,2.00
2022-10-14T12:29:20.529Z,0.93
2022-10-14T12:32:05.060Z,5.15
2022-10-14T12:34:32.625Z,2.90
2022-10-14T12:36:58.967Z,2.72
2022-10-14T12:39:32.213Z,1.38
2022-10-14T12:42:06.843Z,1.98
2022-10-14T12:44:35.391Z,1.20
2022-10-14T12:47:02.690Z,2.95
2022-10-14T12:49:30.240Z,1.90
2022-10-14T12:51:58.527Z,5.03
2022-10-14T12:54:25.378Z,3.53
2022-10-14T12:57:00.340Z,3.33
2022-10-14T12:59:31.433Z,1.08
2022-10-14T13:02:04.193Z,2.60
2022-10-14T13:04:31.908Z,2.38
2022-10-14T13:07:39.873Z,2.58
2022-10-14T13:10:26.130Z,3.58
2022-10-14T13:12:52.529Z,4.00
2022-10-14T13:15:57.592Z,2.67
2022-10-14T13:18:53.324Z,1.33
2022-10-14T13:21:31.871Z,3.43
2022-10-14T13:24:01.877Z,2.75
2022-10-14T13:26:33.848Z,3.55
2022-10-14T13:29:03.353Z,0.55
2022-10-14T13:31:35.964Z,1.67
2022-10-14T13:34:13.075Z,2.95
2022-10-14T13:36:58.063Z,3.38
2022-10-14T13:39:24.709Z,2.17
2022-10-14T13:41:51.443Z,3.42
2022-10-14T13:44:21.689Z,3.92
2022-10-14T13:46:49.085Z,1.52
2022-10-14T13:49:17.123Z,2.45
2022-10-14T13:51:43.738Z,3.42
2022-10-14T13:54:23.408Z,2.35
2022-10-14T14:00:39.224Z,3.13
2022-10-14T14:02:33.957Z,4.30
2022-10-14T14:05:01.404Z,1.65
2022-10-14T14:10:20.621Z,3.47
2022-10-14T14:12:47.191Z,5.93
2022-10-14T14:15:23.850Z,1.35
2022-10-14T14:17:50.239Z,4.05
2022-10-14T14:20:19.354Z,3.28
2022-10-14T14:22:45.649Z,3.13
2022-10-14T14:26:01.289Z,1.85
2022-10-14T14:28:02.628Z,1.52
2022-10-14T14:30:33.465Z,1.75
2022-10-14T14:33:01.484Z,2.35
2022-10-14T14:35:28.422Z,0.80
2022-10-14T14:37:56.412Z,1.60
2022-10-14T14:40:26.811Z,2.80
2022-10-14T14:42:57.663Z,3.00
2022-10-14T14:45:29.200Z,2.28
2022-10-14T14:47:57.029Z,2.25
2022-10-14T14:50:30.781Z,3.90
2022-10-14T14:53:00.667Z,5.22
2022-10-14T14:55:33.003Z,1.75
2022-10-14T14:58:00.875Z,2.20
2022-10-14T15:00:27.243Z,2.05
2022-10-14T15:02:59.837Z,1.17
2022-10-14T15:05:26.779Z,1.67
2022-10-14T15:07:53.278Z,2.40
2022-10-14T15:10:24.448Z,0.85
2022-10-14T15:12:53.915Z,2.45
2022-10-14T15:15:31.079Z,1.40
2022-10-14T15:18:11.944Z,2.75
2022-10-14T15:20:38.328Z,1.85
2022-10-14T15:23:23.164Z,3.35
2022-10-14T15:26:12.500Z,2.95
2022-10-14T15:28:38.861Z,3.40
2022-10-14T15:31:05.902Z,3.63
2022-10-14T15:33:32.478Z,2.35
2022-10-14T15:36:02.364Z,1.45
2022-10-14T15:38:29.271Z,2.80
2022-10-14T15:40:55.821Z,4.30
2022-10-14T15:43:26.380Z,5.18
2022-10-14T15:46:12.393Z,4.57
2022-10-14T15:48:40.381Z,2.13
2022-10-14T15:51:06.927Z,5.60
2022-10-14T15:53:33.648Z,3.42
2022-10-14T15:56:00.339Z,2.95
2022-10-14T15:58:26.880Z,2.00
2022-10-14T16:00:53.728Z,2.92
2022-10-14T16:03:20.255Z,5.88
2022-10-14T16:05:46.609Z,2.03
2022-10-14T16:08:16.807Z,1.98
2022-10-14T16:10:44.005Z,2.63
2022-10-14T16:13:14.048Z,3.65
2022-10-14T16:15:52.018Z,2.58
2022-10-14T16:18:18.323Z,4.75
2022-10-14T16:20:45.229Z,3.05
2022-10-14T16:23:15.322Z,4.20
2022-10-14T16:25:44.488Z,3.35
2022-10-14T16:28:11.997Z,3.22
2022-10-14T16:30:43.875Z,2.75
2022-10-14T16:35:37.772Z,4.78
2022-10-14T16:38:04.062Z,3.78
2022-10-14T16:40:35.722Z,4.70
2022-10-14T16:43:03.215Z,4.90
2022-10-14T16:45:29.538Z,2.17
2022-10-14T16:47:55.854Z,5.65
2022-10-14T16:50:22.536Z,5.35
2022-10-14T16:53:07.861Z,4.20
2022-10-14T16:55:34.275Z,4.93
2022-10-14T16:58:00.818Z,5.60
2022-10-14T17:00:27.169Z,5.63
2022-10-14T17:02:54.315Z,4.45
2022-10-14T17:05:20.638Z,4.38
2022-10-14T17:07:46.999Z,5.13
2022-10-14T17:10:13.307Z,5.25
2022-10-14T17:12:39.760Z,3.33
2022-10-14T17:15:06.355Z,4.93
2022-10-14T17:17:32.693Z,4.60
2022-10-14T17:19:59.059Z,5.43
2022-10-14T17:22:25.621Z,5.07
2022-10-14T17:24:52.088Z,7.30
2022-10-14T17:27:19.605Z,2.60
2022-10-14T17:29:45.996Z,3.50
2022-10-14T17:32:12.481Z,6.55
2022-10-14T17:34:38.832Z,7.15
2022-10-14T17:37:05.401Z,8.32
2022-10-14T17:39:31.868Z,8.10
2022-10-14T17:41:58.389Z,4.50
2022-10-14T17:44:24.837Z,5.75
2022-10-14T17:46:51.222Z,4.55
2022-10-14T17:49:17.585Z,4.72
2022-10-14T17:51:44.835Z,5.75
2022-10-14T17:54:12.257Z,7.53
2022-10-14T17:56:38.946Z,7.45
2022-10-14T17:59:07.421Z,8.25
2022-10-14T18:02:01.057Z,4.80
2022-10-14T18:06:53.993Z,9.30
2022-10-14T18:09:20.341Z,8.73
2022-10-14T18:14:34.032Z,9.13
2022-10-14T18:17:00.375Z,9.85
2022-10-14T18:19:27.068Z,11.35
2022-10-14T18:21:53.436Z,8.20
2022-10-14T18:24:20.201Z,10.07
2022-10-14T18:26:49.053Z,11.93
2022-10-14T18:29:15.350Z,11.32
2022-10-14T18:31:41.793Z,10.95
2022-10-14T18:34:10.557Z,12.82
2022-10-14T18:36:37.193Z,10.35
2022-10-14T18:39:04.823Z,10.63
2022-10-14T18:41:31.173Z,13.82
2022-10-14T18:43:58.111Z,9.57
2022-10-14T18:46:27.168Z,11.60
2022-10-14T18:48:54.787Z,12.18
2022-10-14T18:51:25.576Z,12.32
2022-10-14T18:53:53.265Z,10.70
2022-10-14T18:56:21.522Z,13.35
2022-10-14T18:58:49.846Z,13.23
2022-10-14T19:01:16.652Z,11.38
2022-10-14T19:03:43.622Z,7.43
2022-10-14T19:06:11.081Z,14.27
2022-10-14T19:08:38.385Z,14.82
2022-10-14T19:11:05.585Z,13.82
2022-10-14T19:13:32.128Z,11.10
2022-10-14T19:16:05.836Z,16.63
2022-10-14T19:18:32.154Z,11.85
2022-10-14T19:21:05.374Z,12.43
2022-10-14T19:23:31.931Z,12.85
2022-10-14T19:25:59.208Z,14.15
2022-10-14T19:28:25.851Z,11.50
2022-10-14T19:30:52.182Z,15.25
2022-10-14T19:33:18.476Z,14.77
2022-10-14T19:35:44.783Z,13.70
2022-10-14T19:38:11.081Z,11.93
2022-10-14T19:40:37.405Z,11.15
2022-10-14T19:43:03.727Z,14.77
2022-10-14T19:45:30.142Z,14.50
2022-10-14T19:47:56.527Z,12.95
2022-10-14T19:50:22.837Z,18.98
2022-10-14T19:52:49.179Z,14.18
2022-10-14T19:55:15.494Z,15.07
2022-10-14T19:57:41.855Z,15.48
2022-10-14T20:00:08.615Z,11.40
2022-10-14T20:02:34.952Z,19.30
2022-10-14T20:05:01.246Z,14.23
2022-10-14T20:07:27.632Z,15.75
2022-10-14T20:09:54.000Z,18.35
2022-10-14T20:12:20.504Z,18.77
2022-10-14T20:14:47.089Z,10.82
2022-10-14T20:17:13.447Z,12.25
2022-10-14T20:19:39.851Z,18.77
2022-10-14T20:22:06.264Z,13.00
2022-10-14T20:24:32.656Z,16.38
2022-10-14T20:26:59.024Z,11.48
2022-10-14T20:29:25.302Z,11.13
2022-10-14T20:31:51.711Z,14.35
2022-10-14T20:34:18.244Z,14.10
2022-10-14T20:36:44.541Z,14.00
2022-10-14T20:39:11.163Z,15.38
2022-10-14T20:41:37.559Z,19.25
2022-10-14T20:44:03.878Z,12.68
2022-10-14T20:46:30.169Z,15.68
2022-10-14T20:48:57.056Z,12.30
2022-10-14T20:51:24.421Z,8.95
2022-10-14T20:53:58.487Z,10.13
2022-10-14T20:56:30.076Z,10.68
2022-10-14T20:59:00.703Z,8.82
2022-10-14T21:01:28.192Z,11.25
2022-10-14T21:03:55.250Z,9.52
2022-10-14T21:06:22.765Z,10.80
2022-10-14T21:08:49.535Z,10.88
2022-10-14T21:11:16.900Z,11.02
2022-10-14T21:13:47.288Z,11.05
2022-10-14T21:16:14.694Z,7.45
2022-10-14T21:18:44.411Z,8.82
2022-10-14T21:21:14.288Z,11.13
2022-10-14T21:23:43.310Z,11.60
2022-10-14T21:26:09.844Z,10.63
2022-10-14T21:28:36.278Z,11.50
2022-10-14T21:31:06.430Z,10.60
2022-10-14T21:33:32.807Z,10.73
2022-10-14T21:36:12.978Z,8.98
2022-10-14T21:38:39.606Z,6.38
2022-10-14T21:41:06.441Z,16.10
2022-10-14T21:43:34.484Z,11.98
2022-10-14T21:46:01.688Z,15.40
2022-10-14T21:48:27.975Z,14.75
2022-10-14T21:51:04.267Z,17.02
2022-10-14T21:53:31.238Z,12.23
2022-10-14T21:55:57.639Z,13.57
2022-10-14T21:58:24.234Z,12.73
2022-10-14T22:00:50.627Z,10.88
2022-10-14T22:03:17.749Z,9.40
2022-10-14T22:05:44.345Z,13.20
2022-10-14T22:08:10.647Z,10.07
2022-10-14T22:10:44.885Z,12.73
2022-10-14T22:13:11.526Z,15.82
2022-10-14T22:15:41.676Z,12.32
2022-10-14T22:18:08.321Z,14.90
2022-10-14T22:20:34.613Z,12.43
2022-10-14T22:23:00.955Z,22.42
2022-10-14T22:25:27.231Z,15.73
2022-10-14T22:27:53.560Z,12.55
2022-10-14T22:30:19.930Z,18.58
2022-10-14T22:32:46.255Z,11.40
2022-10-14T22:35:12.550Z,15.27
2022-10-14T22:37:38.954Z,18.05
2022-10-14T22:40:05.503Z,15.18
2022-10-14T22:42:31.981Z,14.63
2022-10-14T22:44:58.319Z,12.77
2022-10-14T22:47:25.065Z,15.43
2022-10-14T22:49:51.771Z,15.00
2022-10-14T22:52:18.060Z,14.02
2022-10-14T22:54:44.490Z,16.63
2022-10-14T22:57:10.897Z,15.52
2022-10-14T22:59:37.268Z,12.60
2022-10-14T23:02:03.572Z,14.60
2022-10-14T23:04:30.504Z,13.38
2022-10-14T23:07:03.011Z,12.85
2022-10-14T23:09:32.383Z,15.60
2022-10-14T23:11:58.751Z,11.00
2022-10-14T23:14:25.104Z,15.25
2022-10-14T23:16:51.562Z,16.42
2022-10-14T23:19:17.851Z,16.50
2022-10-14T23:21:44.482Z,17.05
2022-10-14T23:24:11.708Z,17.38
2022-10-14T23:26:38.075Z,11.63
2022-10-14T23:29:06.172Z,18.05
2022-10-14T23:31:33.358Z,16.15
2022-10-14T23:34:00.709Z,17.42
2022-10-14T23:36:27.305Z,17.38
2022-10-14T23:38:53.654Z,17.58
2022-10-14T23:41:22.077Z,24.25
2022-10-14T23:43:48.970Z,18.88
2022-10-14T23:46:15.519Z,21.15
2022-10-14T23:48:41.809Z,18.13
2022-10-14T23:51:08.232Z,22.95
2022-10-14T23:53:34.878Z,23.67
2022-10-14T23:56:01.541Z,21.98
2022-10-14T23:58:31.329Z,17.75
